createdAt,value
2019-04-23T00:02:54.948Z,7.72
2019-04-23T00:08:08.103Z,8.21
2019-04-23T00:13:08.349Z,7.13
2019-04-23T00:18:22.266Z,11.14
2019-04-23T00:23:28.793Z,8.27
2019-04-23T00:28:38.944Z,7.78
2019-04-23T00:38:47.314Z,8.79
2019-04-23T00:49:05.805Z,11.54
2019-04-23T00:54:14.922Z,9.15
2019-04-23T00:59:11.854Z,8.77
2019-04-23T01:04:27.955Z,9.68
2019-04-23T01:09:29.421Z,8.06
2019-04-23T01:14:44.423Z,8.20
2019-04-23T01:19:43.512Z,9.91
2019-04-23T01:24:35.247Z,9.70
2019-04-23T01:35:17.752Z,9.79
2019-04-23T01:40:19.033Z,9.34
2019-04-23T01:45:20.030Z,8.64
2019-04-23T01:50:37.733Z,8.59
2019-04-23T01:55:34.713Z,9.89
2019-04-23T02:00:41.305Z,8.93
2019-04-23T02:05:48.057Z,10.05
2019-04-23T02:10:58.754Z,13.74
2019-04-23T02:15:57.182Z,9.77
2019-04-23T02:21:15.009Z,10.02
2019-04-23T02:26:31.024Z,10.04
2019-04-23T02:31:51.028Z,9.28
2019-04-23T02:47:10.391Z,12.76
2019-04-23T02:52:05.895Z,10.43
2019-04-23T02:57:13.155Z,11.46
2019-04-23T03:02:35.025Z,9.24
2019-04-23T03:07:39.345Z,9.78
2019-04-23T03:12:31.755Z,9.69
2019-04-23T03:18:01.298Z,14.58
2019-04-23T03:23:03.091Z,12.00
2019-04-23T03:27:49.906Z,12.17
2019-04-23T03:34:42.325Z,9.72
2019-04-23T03:38:36.273Z,11.07
2019-04-23T03:43:33.647Z,11.12
2019-04-23T03:48:27.002Z,11.24
2019-04-23T03:58:38.291Z,10.55
2019-04-23T04:04:06.429Z,12.08
2019-04-23T04:09:00.701Z,12.18
2019-04-23T04:14:30.214Z,12.94
2019-04-23T04:24:29.664Z,10.20
2019-04-23T04:29:39.581Z,9.41
2019-04-23T04:35:09.097Z,10.33
2019-04-23T04:39:53.106Z,8.83
2019-04-23T04:50:02.432Z,10.52
2019-04-23T05:00:20.263Z,10.39
2019-04-23T05:05:58.320Z,10.68
2019-04-23T05:10:43.345Z,13.97
2019-04-23T05:15:40.425Z,9.27
2019-04-23T05:20:38.985Z,12.22
2019-04-23T05:25:49.751Z,10.95
2019-04-23T05:31:01.881Z,13.06
2019-04-23T05:36:08.903Z,12.88
2019-04-23T05:41:16.269Z,11.98
2019-04-23T05:46:27.757Z,11.13
2019-04-23T05:51:38.584Z,12.87
2019-04-23T05:56:29.133Z,10.66
2019-04-23T06:01:54.116Z,14.21
2019-04-23T06:12:01.516Z,10.72
2019-04-23T06:17:07.943Z,11.63
2019-04-23T06:22:22.380Z,12.42
2019-04-23T06:27:13.342Z,12.58
2019-04-23T06:37:49.936Z,12.60
2019-04-23T06:42:49.357Z,11.16
2019-04-23T06:47:57.889Z,13.24
2019-04-23T06:52:55.803Z,10.40
2019-04-23T06:58:17.041Z,11.79
2019-04-23T07:08:26.630Z,11.97
2019-04-23T07:13:31.837Z,14.46
2019-04-23T07:18:36.472Z,12.06
2019-04-23T07:23:54.412Z,10.67
2019-04-23T07:28:53.254Z,10.23
2019-04-23T07:34:01.386Z,13.12
2019-04-23T07:39:06.081Z,10.51
2019-04-23T07:44:12.573Z,11.02
2019-04-23T07:54:32.566Z,10.65
2019-04-23T07:59:37.161Z,12.04
2019-04-23T08:04:56.449Z,11.68
2019-04-23T08:09:54.725Z,9.72
2019-04-23T08:15:01.291Z,10.26
2019-04-23T08:20:09.524Z,12.17
2019-04-23T08:25:12.894Z,11.52
2019-04-23T08:30:05.654Z,9.41
2019-04-23T08:35:27.234Z,9.77
2019-04-23T08:40:33.548Z,12.02
2019-04-23T08:45:35.489Z,10.05
2019-04-23T08:50:47.802Z,9.61
2019-04-23T09:01:05.500Z,10.36
2019-04-23T09:06:10.797Z,10.24
2019-04-23T09:21:37.439Z,11.52
2019-04-23T09:26:32.986Z,8.25
2019-04-23T09:32:00.731Z,10.97
2019-04-23T09:42:08.689Z,11.91
2019-04-23T09:47:17.495Z,11.73
2019-04-23T09:52:21.861Z,11.74
2019-04-23T09:57:24.392Z,8.01
2019-04-23T10:02:28.176Z,9.33
2019-04-23T10:07:28.609Z,9.09
2019-04-23T10:12:24.115Z,10.70
2019-04-23T10:17:29.431Z,9.63
2019-04-23T10:22:39.180Z,10.94
2019-04-23T10:27:45.342Z,10.92
2019-04-23T10:32:51.789Z,13.21
2019-04-23T10:38:04.411Z,9.83
2019-04-23T10:43:07.488Z,10.03
2019-04-23T10:48:32.726Z,9.23
2019-04-23T10:53:38.310Z,10.25
2019-04-23T10:58:47.524Z,12.58
2019-04-23T11:09:29.293Z,9.79
2019-04-23T11:14:11.068Z,10.93
2019-04-23T11:19:31.960Z,8.18
2019-04-23T11:24:41.516Z,11.73
2019-04-23T11:29:38.838Z,9.76
2019-04-23T11:35:07.518Z,12.59
2019-04-23T11:40:04.189Z,12.77
2019-04-23T11:45:06.313Z,10.43
2019-04-23T11:50:18.891Z,11.81
2019-04-23T12:00:13.779Z,10.67
2019-04-23T12:05:41.420Z,11.41
2019-04-23T12:10:45.868Z,10.70
2019-04-23T12:15:39.570Z,9.18
2019-04-23T12:20:48.849Z,16.08
2019-04-23T12:25:58.247Z,15.33
2019-04-23T12:31:05.587Z,13.65
2019-04-23T12:36:21.347Z,11.95
2019-04-23T12:46:39.902Z,11.61
2019-04-23T12:51:38.389Z,22.12
2019-04-23T12:56:57.534Z,14.64
2019-04-23T13:01:56.856Z,12.89
2019-04-23T13:12:10.586Z,14.39
2019-04-23T13:17:24.653Z,15.24
2019-04-23T13:22:23.943Z,13.78
2019-04-23T13:27:23.923Z,14.80
2019-04-23T13:32:39.085Z,14.66
2019-04-23T13:37:49.666Z,12.29
2019-04-23T13:42:57.261Z,13.47
2019-04-23T13:48:03.187Z,18.93
2019-04-23T14:03:26.368Z,14.62
2019-04-23T14:08:24.121Z,17.35
2019-04-23T14:13:44.081Z,17.61
2019-04-23T14:18:55.941Z,15.69
2019-04-23T14:24:03.285Z,16.92
2019-04-23T14:34:06.464Z,13.92
2019-04-23T14:39:15.761Z,14.02
2019-04-23T14:44:16.034Z,17.91
2019-04-23T14:54:50.396Z,14.77
2019-04-23T14:59:37.733Z,15.01
2019-04-23T15:04:47.887Z,15.73
2019-04-23T15:15:10.353Z,16.59
2019-04-23T15:25:29.561Z,14.60
2019-04-23T15:30:14.392Z,16.48
2019-04-23T15:35:40.486Z,17.14
2019-04-23T15:40:36.790Z,17.08
2019-04-23T15:45:44.484Z,13.52
2019-04-23T15:50:59.628Z,20.52
2019-04-23T16:01:18.110Z,18.71
2019-04-23T16:05:46.801Z,17.56
2019-04-23T16:11:15.755Z,18.29
2019-04-23T16:16:26.040Z,13.05
2019-04-23T16:26:50.198Z,17.38
2019-04-23T16:31:51.811Z,18.44
2019-04-23T16:47:12.625Z,14.26
2019-04-23T16:52:21.802Z,16.90
2019-04-23T17:02:40.593Z,16.41
2019-04-23T17:07:53.009Z,27.30
2019-04-23T17:12:54.808Z,17.95
2019-04-23T17:17:55.242Z,20.15
2019-04-23T17:23:00.517Z,24.24
2019-04-23T17:33:27.212Z,17.76
2019-04-23T17:38:34.303Z,18.81
2019-04-23T17:48:35.356Z,20.49
2019-04-23T17:53:42.865Z,21.35
2019-04-23T17:59:00.431Z,18.55
2019-04-23T18:03:57.333Z,19.73
2019-04-23T18:24:27.477Z,15.25
2019-04-23T18:45:04.635Z,17.26
2019-04-23T18:50:15.626Z,16.43
2019-04-23T18:55:24.492Z,21.96
2019-04-23T19:05:43.467Z,17.51
2019-04-23T19:10:37.312Z,19.11
2019-04-23T19:21:00.898Z,18.18
2019-04-23T19:25:49.910Z,17.53
2019-04-23T19:31:01.879Z,19.67
2019-04-23T19:36:19.037Z,20.27
2019-04-23T19:46:52.363Z,18.08
2019-04-23T19:51:42.835Z,21.38
2019-04-23T20:01:53.316Z,16.04
2019-04-23T20:07:12.972Z,19.08
2019-04-23T20:17:23.149Z,24.92
2019-04-23T20:33:18.887Z,18.22
2019-04-23T20:48:01.938Z,17.59
2019-04-23T20:58:09.427Z,19.65
2019-04-23T21:03:38.047Z,21.33
2019-04-23T21:08:28.991Z,14.67
2019-04-23T21:14:01.906Z,16.47
2019-04-23T21:18:42.542Z,17.46
2019-04-23T21:23:44.151Z,20.62
2019-04-23T21:28:54.055Z,15.18
2019-04-23T21:33:59.365Z,21.92
2019-04-23T21:39:08.728Z,22.31
2019-04-23T21:44:13.001Z,18.86
2019-04-23T21:49:41.347Z,17.48
2019-04-23T21:54:41.241Z,17.19
2019-04-23T21:59:41.414Z,18.52
2019-04-23T22:04:52.717Z,16.34
2019-04-23T22:09:57.679Z,17.93
2019-04-23T22:14:50.433Z,23.00
2019-04-23T22:20:21.477Z,21.60
2019-04-23T22:25:18.069Z,20.75
2019-04-23T22:30:30.684Z,28.01
2019-04-23T22:35:20.298Z,22.51
2019-04-23T22:40:41.600Z,25.99
2019-04-23T22:45:43.082Z,29.41
2019-04-23T22:51:06.955Z,23.84
2019-04-23T22:55:56.926Z,32.88
2019-04-23T23:01:19.695Z,23.36
2019-04-23T23:06:20.631Z,22.68
2019-04-23T23:11:28.302Z,21.94
2019-04-23T23:21:54.518Z,18.00
2019-04-23T23:26:55.973Z,19.32
2019-04-23T23:32:02.073Z,17.93
2019-04-23T23:42:09.676Z,19.34
2019-04-23T23:52:35.481Z,17.58
2019-04-23T23:57:32.834Z,17.68
